Aeroporto :
LOGIN :

Iscrizione | Disclaimer

   EN    FR    IT 

 










Sommario :    VFR   VFR Marginale   IFR   IFR Intensivo   IFR Molto Intensivo
Visibilità : 
Base nubi : 
>= 8 km
>= 3000ft
5 / 8 km
1000 / 3000 ft
1500m / 5 km
500 / 1000 ft
800 / 1500m
200 / 500 ft
< 800m
< 200 ft
Simboli :   Temporali  Nebbia  Neve Forte  Precipitazioni Forti  Vento > 20 kt
SIGMETs :   Varie  Temporali  Ghiacco  Turbolenza  Onda orograficha  Ceneri Vulcaniche







- Altitudine del aeroporto : 209 ft
- Codice IATA : CLY
- Carte del aeroporto


LFKC - Calvi

ULTIMO METAR :
  • 250100Z AUTO VRB08KT CAVOK 13/02 Q1018

METARs OBSOLETI :
  • 250030Z AUTO 07005KT 040V110 CAVOK 11/01 Q1018
  • 250000Z AUTO 22003KT 130V280 CAVOK 09/02 Q1018
  • 242330Z AUTO VRB03KT CAVOK 09/03 Q1019
  • 242300Z AUTO VRB03KT CAVOK 09/04 Q1019
  • 242230Z AUTO 17003KT 130V270 CAVOK 08/04 Q1019
  • 242200Z AUTO 18004KT CAVOK 08/04 Q1020

TAF TAF LFKC
Valido dal 24 a 15 ore il 25 a 15 ore UTC


241400Z 2415/2515 24010KT CAVOK TX20/2512Z TN06/2503Z
BECMG 2418/2420 18006KT
BECMG 2509/2510 22010KT
BECMG 2512/2515 23012G25KT
ATIS : +33 4 95 65 82 49
Nessun NOTAM noto per questo aeroporto.



MetMap, La meteo Aeronautica in un colpo d'occhio ! - Copyright ORBIFLY Dicembre 2007 - Disclaimer

ORBIFLY MET'MAP TEAM :

Programmazione e sviluppo : Alexandra Zaïnal
Concezione e sviluppo : Baudouin d'Aumeries
Co-Programmazione e sviluppo : Marc-Olivier Méhu
Supporto tecnico e logistico : Manuel Goepfert
Aiuto per la traduzione : Arnaldo La Scala

Contatto : metmap@orbifly.com




FONTI E CREDITI :

   NOAA